Time;durP1;ratioP1;P1;durP2;ratioP2;P2;SDS_P1;SDS_P2;PMS_P1;PMS_P2;Temp;Humidity;BMP_temperature;BMP_pressure;BME280_temperature;BME280_humidity;BME280_pressure;Samples;Min_cycle;Max_cycle;Signal;HPM_P1;HPM_P2
2021/03/01 00:00:26;;;;;;;64.55;37.83;;;154.10;1843.20;;;;;;5071026;28;20028;-61
2021/03/01 00:02:52;;;;;;;64.22;36.83;;;154.10;1843.20;;;;;;5070818;28;20024;-60
2021/03/01 00:05:18;;;;;;;67.05;37.45;;;154.10;1817.60;;;;;;5070850;28;20039;-60
2021/03/01 00:07:43;;;;;;;70.10;37.40;;;154.10;1843.20;;;;;;5069280;28;20033;-60
2021/03/01 00:10:10;;;;;;;72.13;38.08;;;154.10;1817.60;;;;;;5070073;28;20079;-60
2021/03/01 00:12:36;;;;;;;64.07;35.70;;;154.00;1843.20;;;;;;5069231;28;20028;-60
2021/03/01 00:15:09;;;;;;;66.80;36.65;;;154.00;1817.60;;;;;;5070136;28;20052;-62
2021/03/01 00:17:34;;;;;;;57.55;35.50;;;154.00;1817.60;;;;;;5070886;28;20023;-62
2021/03/01 00:20:00;;;;;;;64.30;35.33;;;154.00;1817.60;;;;;;5070543;28;20389;-60
2021/03/01 00:22:26;;;;;;;60.85;34.25;;;154.00;1843.20;;;;;;5070722;28;20036;-61
2021/03/01 00:24:52;;;;;;;62.35;34.95;;;154.00;1843.20;;;;;;5066466;28;20359;-64
2021/03/01 00:27:18;;;;;;;58.70;34.10;;;154.00;1817.60;;;;;;5065103;28;20040;-58
2021/03/01 00:29:43;;;;;;;60.08;34.72;;;154.10;1817.60;;;;;;5067858;28;20040;-58
2021/03/01 00:32:09;;;;;;;59.20;33.20;;;154.10;1817.60;;;;;;5068962;28;20033;-58
2021/03/01 00:34:35;;;;;;;54.67;32.58;;;154.10;1817.60;;;;;;5067046;28;20056;-61
2021/03/01 00:37:00;;;;;;;60.35;34.67;;;154.10;1817.60;;;;;;5070625;28;20474;-62
2021/03/01 00:39:26;;;;;;;59.15;32.38;;;154.10;1817.60;;;;;;5068100;28;20032;-63
2021/03/01 00:41:52;;;;;;;62.72;32.22;;;154.10;1817.60;;;;;;5069750;28;20048;-63
2021/03/01 00:44:18;;;;;;;59.22;33.47;;;154.10;1817.60;;;;;;5055448;28;20037;-62
2021/03/01 00:46:44;;;;;;;56.88;32.30;;;154.10;1817.60;;;;;;5072145;28;20042;-63
2021/03/01 00:49:10;;;;;;;58.67;34.50;;;154.10;1843.20;;;;;;5072225;28;20033;-64
2021/03/01 00:51:35;;;;;;;57.25;35.53;;;154.20;1843.20;;;;;;5049528;28;20108;-62
2021/03/01 00:54:01;;;;;;;61.75;35.55;;;154.20;1843.20;;;;;;5062779;28;20020;-66
2021/03/01 00:56:27;;;;;;;64.25;36.13;;;154.20;1843.20;;;;;;5072457;28;20422;-63
2021/03/01 00:58:52;;;;;;;70.78;38.35;;;154.20;1817.60;;;;;;5070481;28;20032;-63
2021/03/01 01:01:18;;;;;;;60.25;34.35;;;154.20;1843.20;;;;;;5072138;28;20095;-64
2021/03/01 01:03:44;;;;;;;64.80;36.08;;;154.30;1843.20;;;;;;5071998;28;20020;-64
2021/03/01 01:06:09;;;;;;;66.22;35.72;;;154.30;1817.60;;;;;;5072433;28;20024;-63
2021/03/01 01:08:35;;;;;;;61.63;34.65;;;154.30;1817.60;;;;;;5068498;28;20121;-65
2021/03/01 01:11:01;;;;;;;59.30;33.67;;;154.30;1817.60;;;;;;5070837;28;20096;-62
2021/03/01 01:13:27;;;;;;;58.95;33.65;;;154.30;1817.60;;;;;;5060852;28;20025;-62
2021/03/01 01:15:53;;;;;;;56.33;31.95;;;154.20;1817.60;;;;;;5066269;28;20040;-63
2021/03/01 01:18:18;;;;;;;56.53;32.90;;;154.30;1817.60;;;;;;5072044;28;20047;-62
2021/03/01 01:20:44;;;;;;;69.07;33.40;;;154.30;1817.60;;;;;;5053762;28;20021;-62
2021/03/01 01:23:10;;;;;;;55.25;32.75;;;154.30;1817.60;;;;;;5070256;28;20032;-61
2021/03/01 01:25:35;;;;;;;60.83;31.92;;;154.30;1817.60;;;;;;5071945;28;20032;-63
2021/03/01 01:28:01;;;;;;;61.30;33.50;;;154.30;1817.60;;;;;;5071918;28;20032;-63
2021/03/01 01:30:27;;;;;;;54.45;30.50;;;154.30;1817.60;;;;;;5092138;28;20040;-62
2021/03/01 01:32:53;;;;;;;51.70;30.38;;;154.30;1817.60;;;;;;5080449;28;20026;-62
2021/03/01 01:35:20;;;;;;;60.10;31.33;;;154.30;1817.60;;;;;;5065834;28;20091;-63
2021/03/01 01:37:46;;;;;;;53.30;30.58;;;154.20;1817.60;;;;;;5066999;28;20028;-62
2021/03/01 01:40:16;;;;;;;57.03;32.58;;;154.30;1817.60;;;;;;5069748;28;20402;-61
2021/03/01 01:42:42;;;;;;;55.40;31.30;;;154.30;1817.60;;;;;;5067750;28;20159;-63
2021/03/01 01:45:20;;;;;;;54.08;32.13;;;154.30;1817.60;;;;;;5071980;28;20021;-61
2021/03/01 01:47:48;;;;;;;56.78;33.35;;;154.30;1817.60;;;;;;5084112;28;20493;-60
2021/03/01 01:50:14;;;;;;;56.93;33.63;;;154.20;1817.60;;;;;;5071585;28;20490;-64
2021/03/01 01:52:40;;;;;;;58.15;31.17;;;154.20;1817.60;;;;;;5071860;28;20053;-61
2021/03/01 01:55:08;;;;;;;53.08;30.75;;;154.30;1817.60;;;;;;5071397;28;20020;-61
2021/03/01 01:57:36;;;;;;;60.30;33.53;;;154.30;1817.60;;;;;;5070852;28;20020;-61
2021/03/01 02:00:13;;;;;;;53.35;30.73;;;154.20;1817.60;;;;;;5069026;28;20029;-60
2021/03/01 02:02:40;;;;;;;52.38;30.40;;;154.20;1817.60;;;;;;5071638;28;20472;-61
2021/03/01 02:05:09;;;;;;;53.85;30.92;;;154.30;1817.60;;;;;;5069485;28;20400;-60
2021/03/01 02:07:57;;;;;;;51.53;29.20;;;154.30;1817.60;;;;;;5069924;28;20081;-62
2021/03/01 02:10:45;;;;;;;52.65;29.88;;;154.30;1792.00;;;;;;5071628;28;20024;-60
2021/03/01 02:14:09;;;;;;;47.10;28.10;;;154.30;1792.00;;;;;;5069757;28;20033;-59
2021/03/01 02:16:36;;;;;;;53.67;31.15;;;154.30;1792.00;;;;;;4990129;28;20350;-60
2021/03/01 02:19:03;;;;;;;53.45;30.60;;;154.30;1792.00;;;;;;4973532;28;20026;-61
2021/03/01 02:21:30;;;;;;;51.95;30.77;;;154.20;1792.00;;;;;;4990327;28;20038;-62
2021/03/01 02:23:56;;;;;;;54.33;32.80;;;154.20;1792.00;;;;;;4989507;28;20093;-59
2021/03/01 02:26:26;;;;;;;53.97;32.13;;;154.10;1817.60;;;;;;4990442;28;20026;-60
2021/03/01 02:28:57;;;;;;;59.45;33.30;;;154.10;1817.60;;;;;;4989878;28;20043;-60
2021/03/01 02:31:26;;;;;;;53.40;32.25;;;154.10;1817.60;;;;;;4989764;28;20038;-62
2021/03/01 02:33:57;;;;;;;58.63;33.15;;;154.00;1817.60;;;;;;4989816;28;20524;-59
2021/03/01 02:36:31;;;;;;;60.92;34.92;;;154.00;1843.20;;;;;;4990022;28;20506;-59
2021/03/01 02:38:58;;;;;;;60.58;33.25;;;154.00;2252.80;;;;;;4989869;28;20022;-60
2021/03/01 02:41:26;;;;;;;63.95;36.00;;;153.90;1868.80;;;;;;4989379;28;20582;-59
2021/03/01 02:43:52;;;;;;;62.20;35.95;;;153.90;1868.80;;;;;;4989376;28;20046;-61
2021/03/01 02:46:19;;;;;;;61.42;35.50;;;153.90;1868.80;;;;;;5006530;28;20069;-59
2021/03/01 02:48:45;;;;;;;68.97;37.25;;;153.80;1894.40;;;;;;5054454;28;20047;-60
2021/03/01 02:51:12;;;;;;;63.45;36.33;;;153.70;1894.40;;;;;;5054746;28;20439;-61
2021/03/01 02:53:40;;;;;;;62.97;36.22;;;153.60;1920.00;;;;;;5036006;28;20486;-59
2021/03/01 02:56:08;;;;;;;65.35;36.22;;;153.60;1920.00;;;;;;5054690;28;20017;-61
2021/03/01 02:58:37;;;;;;;64.90;34.80;;;128.80;1945.60;;;;;;5054255;28;20032;-61
2021/03/01 03:01:03;;;;;;;60.13;32.75;;;128.80;1945.60;;;;;;5054421;28;20079;-61
2021/03/01 03:03:31;;;;;;;65.60;35.22;;;128.70;1971.20;;;;;;5054168;28;20021;-60
2021/03/01 03:05:57;;;;;;;57.58;33.22;;;128.70;1971.20;;;;;;5054708;28;20032;-61
2021/03/01 03:08:24;;;;;;;57.72;34.45;;;128.50;1971.20;;;;;;5054374;28;20108;-60
2021/03/01 03:10:52;;;;;;;57.10;32.97;;;128.60;1996.80;;;;;;5054069;28;20036;-61
2021/03/01 03:13:22;;;;;;;60.63;34.60;;;128.50;1996.80;;;;;;5036188;28;20040;-60
2021/03/01 03:15:58;;;;;;;67.88;35.05;;;128.50;1996.80;;;;;;5053841;28;20021;-60
2021/03/01 03:18:26;;;;;;;67.32;36.63;;;128.50;1996.80;;;;;;5053878;28;20101;-60
2021/03/01 03:20:52;;;;;;;62.35;33.92;;;128.40;2022.40;;;;;;5054336;28;20132;-61
2021/03/01 03:23:18;;;;;;;57.90;34.22;;;128.30;2022.40;;;;;;5054038;28;20538;-61
2021/03/01 03:25:44;;;;;;;60.30;33.78;;;128.30;2022.40;;;;;;5052425;28;20074;-60
2021/03/01 03:28:09;;;;;;;71.30;36.10;;;128.20;2048.00;;;;;;5051825;28;20120;-60
2021/03/01 03:30:35;;;;;;;63.88;35.10;;;128.20;2022.40;;;;;;5050452;28;20118;-60
2021/03/01 03:33:02;;;;;;;59.67;34.13;;;128.20;2048.00;;;;;;5051301;28;20024;-61
2021/03/01 03:35:29;;;;;;;62.40;35.90;;;128.30;2048.00;;;;;;5052367;28;20029;-61
2021/03/01 03:38:02;;;;;;;60.13;34.20;;;128.30;2022.40;;;;;;5053177;28;20024;-60
2021/03/01 03:40:30;;;;;;;57.60;33.90;;;128.30;2022.40;;;;;;5053128;28;20121;-61
2021/03/01 03:42:56;;;;;;;60.63;34.38;;;128.30;2048.00;;;;;;5067276;28;20568;-62
2021/03/01 03:45:23;;;;;;;58.35;32.92;;;128.30;2022.40;;;;;;5048764;28;20094;-61
2021/03/01 03:47:52;;;;;;;61.20;33.97;;;128.30;2022.40;;;;;;5072696;28;20032;-60
2021/03/01 03:50:20;;;;;;;60.00;36.60;;;128.40;2048.00;;;;;;5072312;28;20077;-60
2021/03/01 03:52:49;;;;;;;62.28;32.95;;;128.50;2022.40;;;;;;5055268;28;20390;-61
2021/03/01 03:55:18;;;;;;;57.95;32.55;;;128.50;1996.80;;;;;;5054793;28;20041;-61
2021/03/01 03:57:50;;;;;;;56.63;33.13;;;128.50;1996.80;;;;;;5073459;28;20074;-61
2021/03/01 04:00:17;;;;;;;58.22;32.58;;;128.40;1996.80;;;;;;5055229;28;20028;-60
2021/03/01 04:02:44;;;;;;;56.03;31.10;;;128.40;2022.40;;;;;;5055029;28;20489;-60
2021/03/01 04:05:13;;;;;;;55.33;32.28;;;128.40;2022.40;;;;;;5073416;28;20032;-61
2021/03/01 04:07:42;;;;;;;58.33;31.75;;;128.30;2048.00;;;;;;5073152;28;20070;-60
2021/03/01 04:10:09;;;;;;;57.33;30.92;;;128.40;2022.40;;;;;;5073101;28;20029;-61
2021/03/01 04:12:38;;;;;;;55.58;30.88;;;128.50;2022.40;;;;;;5073136;28;20576;-60
2021/03/01 04:15:07;;;;;;;54.70;32.25;;;128.50;1996.80;;;;;;5073156;28;20021;-62
2021/03/01 04:17:35;;;;;;;56.63;32.05;;;128.60;1996.80;;;;;;5052939;28;20029;-61
2021/03/01 04:20:03;;;;;;;51.08;31.00;;;128.60;1996.80;;;;;;5050597;28;20032;-59
2021/03/01 04:22:29;;;;;;;53.10;32.05;;;128.60;1996.80;;;;;;5052406;28;20045;-60
2021/03/01 04:24:56;;;;;;;55.42;31.35;;;128.60;1996.80;;;;;;5072638;28;20033;-60
2021/03/01 04:27:22;;;;;;;56.95;30.50;;;128.50;2022.40;;;;;;5073124;28;20078;-59
2021/03/01 04:29:49;;;;;;;54.50;31.35;;;128.40;2022.40;;;;;;5071050;28;20490;-61
2021/03/01 04:32:16;;;;;;;55.72;31.48;;;128.30;2022.40;;;;;;5073081;28;20028;-60
2021/03/01 04:34:43;;;;;;;54.70;32.58;;;128.30;2048.00;;;;;;5072345;28;20021;-60
2021/03/01 04:37:08;;;;;;;57.60;32.55;;;128.20;2048.00;;;;;;5072847;28;20017;-62
2021/03/01 04:39:34;;;;;;;62.08;31.95;;;128.10;2048.00;;;;;;5072308;28;20020;-61
2021/03/01 04:42:00;;;;;;;53.47;31.88;;;128.00;2073.60;;;;;;5072323;28;20529;-63
2021/03/01 04:44:27;;;;;;;58.42;32.45;;;128.00;2073.60;;;;;;5072537;28;20032;-62
2021/03/01 04:46:53;;;;;;;58.15;32.35;;;103.30;2073.60;;;;;;5072242;28;20396;-60
2021/03/01 04:49:21;;;;;;;64.40;31.05;;;103.20;2073.60;;;;;;5072522;28;20043;-60
2021/03/01 04:51:48;;;;;;;64.47;34.08;;;103.20;2099.20;;;;;;5072427;28;20460;-60
2021/03/01 04:54:15;;;;;;;59.78;34.90;;;103.20;2099.20;;;;;;5052757;28;20032;-60
2021/03/01 04:56:44;;;;;;;63.15;32.83;;;103.10;2099.20;;;;;;5072337;28;20797;-59
2021/03/01 04:59:15;;;;;;;60.53;34.97;;;103.10;2099.20;;;;;;5071047;28;20033;-60
2021/03/01 05:01:42;;;;;;;63.08;34.83;;;103.00;2124.80;;;;;;5070456;28;20039;-60
2021/03/01 05:04:09;;;;;;;69.78;36.97;;;102.90;2124.80;;;;;;5054011;28;20067;-60
2021/03/01 05:06:35;;;;;;;61.58;33.83;;;102.90;2150.40;;;;;;5071936;28;20021;-61
2021/03/01 05:09:02;;;;;;;62.15;34.53;;;102.80;2150.40;;;;;;5071545;28;20039;-61
2021/03/01 05:11:34;;;;;;;66.55;37.33;;;102.70;2201.60;;;;;;5072295;28;20050;-60
2021/03/01 05:14:02;;;;;;;69.25;37.13;;;102.70;2201.60;;;;;;5071908;28;20017;-59
2021/03/01 05:16:28;;;;;;;72.38;37.60;;;102.70;2201.60;;;;;;5072267;28;20024;-61
2021/03/01 05:18:54;;;;;;;69.90;36.67;;;102.50;2227.20;;;;;;5071607;28;20048;-61
2021/03/01 05:21:20;;;;;;;61.97;35.78;;;102.60;2227.20;;;;;;5071900;28;20240;-62
2021/03/01 05:23:47;;;;;;;58.40;34.88;;;102.70;2201.60;;;;;;5071938;28;20032;-61
2021/03/01 05:26:15;;;;;;;63.53;37.92;;;102.80;2176.00;;;;;;5069982;28;20364;-62
2021/03/01 05:28:44;;;;;;;65.07;37.90;;;102.80;2176.00;;;;;;5071828;28;20024;-62
2021/03/01 05:31:10;;;;;;;70.50;37.42;;;102.80;2201.60;;;;;;5070664;28;20052;-62
2021/03/01 05:33:36;;;;;;;67.30;37.38;;;102.80;2176.00;;;;;;5071854;28;20025;-60
2021/03/01 05:36:02;;;;;;;64.10;35.38;;;102.80;2176.00;;;;;;5053113;28;20478;-61
2021/03/01 05:38:28;;;;;;;59.72;34.20;;;102.80;2176.00;;;;;;5071638;28;20032;-62
2021/03/01 05:40:55;;;;;;;63.10;36.10;;;102.90;2176.00;;;;;;5071656;28;20024;-61
2021/03/01 05:43:23;;;;;;;67.88;36.35;;;102.80;2176.00;;;;;;5070063;28;20123;-62
2021/03/01 05:45:51;;;;;;;60.65;34.45;;;102.80;2201.60;;;;;;5071783;28;20024;-62
2021/03/01 05:48:19;;;;;;;58.70;34.05;;;102.70;2201.60;;;;;;5071561;28;20017;-62
2021/03/01 05:50:46;;;;;;;55.60;32.10;;;102.80;2201.60;;;;;;5053776;28;20098;-61
2021/03/01 05:53:18;;;;;;;59.85;35.15;;;102.80;2201.60;;;;;;5071417;28;20551;-61
2021/03/01 05:55:44;;;;;;;63.22;34.47;;;102.90;2150.40;;;;;;5070411;28;20036;-61
2021/03/01 05:58:12;;;;;;;62.20;33.13;;;103.10;2150.40;;;;;;5071492;28;20028;-61
2021/03/01 06:00:38;;;;;;;63.25;34.03;;;103.10;2124.80;;;;;;5071788;28;20518;-61
2021/03/01 06:03:05;;;;;;;59.42;31.05;;;103.30;2099.20;;;;;;5071933;28;20028;-61
2021/03/01 06:05:31;;;;;;;58.35;33.58;;;128.00;2099.20;;;;;;5071603;28;20017;-61
2021/03/01 06:07:57;;;;;;;56.38;31.70;;;128.10;2073.60;;;;;;5071655;28;20024;-60
2021/03/01 06:10:23;;;;;;;56.20;32.65;;;128.10;2073.60;;;;;;5071420;28;20501;-61
2021/03/01 06:12:48;;;;;;;60.75;32.80;;;128.10;2099.20;;;;;;5072039;28;20074;-63
2021/03/01 06:15:15;;;;;;;58.05;32.53;;;128.00;2099.20;;;;;;5071443;28;20029;-61
2021/03/01 06:17:41;;;;;;;55.92;32.17;;;128.00;2099.20;;;;;;5071637;28;20056;-61
2021/03/01 06:20:10;;;;;;;52.00;30.83;;;103.30;2099.20;;;;;;5074826;28;20063;-61
2021/03/01 06:22:43;;;;;;;50.17;29.52;;;103.30;2099.20;;;;;;5075151;28;20021;-61
2021/03/01 06:25:17;;;;;;;54.97;31.50;;;128.00;2099.20;;;;;;5075320;28;20113;-62
2021/03/01 06:27:50;;;;;;;56.97;31.85;;;128.00;2099.20;;;;;;5074900;28;20066;-61
2021/03/01 06:30:18;;;;;;;50.50;29.70;;;128.00;2099.20;;;;;;5074901;28;20036;-63
2021/03/01 06:33:01;;;;;;;61.13;32.63;;;128.10;2099.20;;;;;;5074788;28;20428;-61
2021/03/01 06:35:36;;;;;;;51.47;28.63;;;128.00;2124.80;;;;;;5074803;28;20031;-63
2021/03/01 06:38:35;;;;;;;54.38;30.15;;;128.00;2124.80;;;;;;5067137;28;20560;-62
2021/03/01 06:41:10;;;;;;;52.88;30.58;;;128.00;2099.20;;;;;;4990562;28;20178;-61
2021/03/01 06:43:38;;;;;;;54.67;32.72;;;128.10;2099.20;;;;;;4997826;28;20415;-61
2021/03/01 06:46:12;;;;;;;53.10;31.40;;;128.10;2099.20;;;;;;4999150;28;20419;-60
2021/03/01 06:48:39;;;;;;;52.47;31.45;;;128.20;2124.80;;;;;;4982372;28;20065;-61
2021/03/01 06:51:06;;;;;;;53.75;30.10;;;128.30;2073.60;;;;;;4991762;28;20046;-60
2021/03/01 06:53:32;;;;;;;52.17;30.98;;;128.40;2073.60;;;;;;4996106;28;20112;-61
2021/03/01 06:56:08;;;;;;;56.67;28.30;;;128.30;2073.60;;;;;;4997473;28;20034;-61
2021/03/01 06:58:34;;;;;;;53.80;30.70;;;128.30;2073.60;;;;;;4995861;28;20543;-62
2021/03/01 07:01:03;;;;;;;52.60;27.65;;;128.20;2099.20;;;;;;4993127;28;20019;-63
2021/03/01 07:03:30;;;;;;;50.58;28.35;;;128.20;2099.20;;;;;;4993769;28;20050;-61
2021/03/01 07:05:57;;;;;;;50.20;29.23;;;128.20;2099.20;;;;;;4993579;28;20097;-60
2021/03/01 07:08:36;;;;;;;48.67;27.88;;;128.10;2099.20;;;;;;4991943;28;20555;-61
2021/03/01 07:11:22;;;;;;;;;;;128.30;2099.20;;;;;;4995703;28;20492;-60
2021/03/01 07:13:48;;;;;;;50.58;27.65;;;128.30;2073.60;;;;;;4995945;28;20360;-61
2021/03/01 07:16:15;;;;;;;46.05;27.05;;;128.40;2073.60;;;;;;4995355;28;20030;-62
2021/03/01 07:18:42;;;;;;;56.80;29.60;;;128.30;2073.60;;;;;;5065890;28;20032;-61
2021/03/01 07:21:12;;;;;;;50.90;28.17;;;128.40;2073.60;;;;;;5074598;28;20032;-61
2021/03/01 07:23:42;;;;;;;45.22;27.15;;;128.30;2073.60;;;;;;5067819;28;20562;-60
2021/03/01 07:26:14;;;;;;;48.08;26.58;;;128.30;2073.60;;;;;;5074267;28;20023;-61
2021/03/01 07:28:52;;;;;;;49.78;30.23;;;128.30;2073.60;;;;;;5072735;28;20036;-63
2021/03/01 07:31:22;;;;;;;52.17;29.23;;;128.30;2099.20;;;;;;5061239;28;20025;-61
2021/03/01 07:33:48;;;;;;;49.70;28.58;;;128.40;2073.60;;;;;;5073166;28;20056;-61
2021/03/01 07:36:16;;;;;;;55.25;29.65;;;128.50;2073.60;;;;;;5073318;28;20470;-61
2021/03/01 07:38:43;;;;;;;48.15;29.02;;;128.60;2073.60;;;;;;5071948;28;20033;-61
2021/03/01 07:41:09;;;;;;;47.20;27.13;;;128.80;2048.00;;;;;;5074077;28;20029;-61
2021/03/01 07:43:39;;;;;;;55.85;27.90;;;128.80;2022.40;;;;;;5055629;28;20036;-63
2021/03/01 07:46:06;;;;;;;51.33;27.92;;;128.90;2022.40;;;;;;5072838;28;20036;-61
2021/03/01 07:48:50;;;;;;;93.72;35.50;;;128.90;2022.40;;;;;;5072600;28;20079;-60
2021/03/01 07:51:35;;;;;;;50.88;30.60;;;153.70;2048.00;;;;;;5066500;28;20036;-61
2021/03/01 07:54:01;;;;;;;48.03;27.58;;;153.70;1996.80;;;;;;5053302;28;20503;-60
2021/03/01 07:56:30;;;;;;;53.63;29.38;;;153.80;1996.80;;;;;;5053456;28;20029;-61
2021/03/01 07:59:01;;;;;;;49.22;29.45;;;153.90;1971.20;;;;;;5039462;28;20433;-60
2021/03/01 08:01:28;;;;;;;54.33;29.75;;;154.00;1971.20;;;;;;5053020;28;20069;-61
2021/03/01 08:03:54;;;;;;;53.30;30.17;;;154.00;1971.20;;;;;;5062430;28;20020;-61
2021/03/01 08:06:21;;;;;;;47.90;28.52;;;154.20;1945.60;;;;;;5067210;28;20028;-62
2021/03/01 08:08:56;;;;;;;49.83;28.33;;;154.40;1894.40;;;;;;5061557;28;20482;-61
2021/03/01 08:11:37;;;;;;;49.70;27.83;;;154.50;1894.40;;;;;;5053944;28;20111;-62
2021/03/01 08:14:11;;;;;;;48.13;26.73;;;179.20;1894.40;;;;;;5053672;28;20120;-62
2021/03/01 08:16:37;;;;;;;42.60;26.30;;;179.30;1894.40;;;;;;5054001;28;20013;-63
2021/03/01 08:19:03;;;;;;;47.22;28.27;;;179.30;1868.80;;;;;;5066634;28;20069;-62
2021/03/01 08:22:02;;;;;;;43.30;27.80;;;179.40;1843.20;;;;;;5059954;28;20063;-62
2021/03/01 08:24:44;;;;;;;;;;;179.40;1868.80;;;;;;5048773;28;20112;-63
2021/03/01 08:27:25;;;;;;;47.28;28.80;;;179.50;1843.20;;;;;;5054611;28;19909;-63
2021/03/01 08:30:12;;;;;;;50.08;29.23;;;179.60;1843.20;;;;;;5053329;28;20033;-63
2021/03/01 08:32:38;;;;;;;49.95;29.92;;;179.60;1843.20;;;;;;5053256;28;20479;-61
2021/03/01 08:35:24;;;;;;;52.70;30.25;;;179.70;1843.20;;;;;;5063987;28;20031;-61
2021/03/01 08:37:50;;;;;;;47.15;29.63;;;179.80;1817.60;;;;;;5052869;28;20116;-61
2021/03/01 08:40:20;;;;;;;55.80;31.02;;;179.80;1817.60;;;;;;5052520;28;20112;-61
2021/03/01 08:43:06;;;;;;;53.95;31.90;;;179.80;1843.20;;;;;;5066929;28;20136;-63
2021/03/01 08:45:41;;;;;;;47.38;28.75;;;179.80;1843.20;;;;;;5067156;28;20070;-61
2021/03/01 08:48:09;;;;;;;49.83;29.08;;;179.90;1817.60;;;;;;5072312;28;20032;-61
2021/03/01 08:50:38;;;;;;;46.40;28.85;;;180.00;1817.60;;;;;;5072751;28;20037;-61
2021/03/01 08:53:04;;;;;;;53.22;28.52;;;180.10;1817.60;;;;;;5072421;28;20033;-61
2021/03/01 08:55:30;;;;;;;48.47;27.13;;;180.10;1817.60;;;;;;5072457;28;20023;-61
2021/03/01 08:58:03;;;;;;;45.25;27.25;;;180.10;1817.60;;;;;;5072503;28;20366;-61
2021/03/01 09:00:30;;;;;;;45.00;25.27;;;204.90;1792.00;;;;;;5072083;28;20032;-60
2021/03/01 09:03:31;;;;;;;45.28;26.95;;;180.10;1792.00;;;;;;5071273;28;20024;-63
2021/03/01 09:06:04;;;;;;;45.97;26.98;;;204.90;1792.00;;;;;;5028883;28;20044;-60
2021/03/01 09:08:38;;;;;;;45.13;25.95;;;205.00;1766.40;;;;;;5029655;28;20034;-61
2021/03/01 09:11:13;;;;;;;41.55;25.70;;;205.00;1792.00;;;;;;5030219;28;20049;-61
2021/03/01 09:13:39;;;;;;;48.08;27.27;;;205.10;1766.40;;;;;;5029817;28;20032;-61
2021/03/01 09:16:16;;;;;;;44.80;25.65;;;205.20;1766.40;;;;;;5030119;28;20041;-61
2021/03/01 09:18:43;;;;;;;46.17;25.20;;;205.30;1766.40;;;;;;5029987;28;20476;-62
2021/03/01 09:21:13;;;;;;;44.85;26.25;;;205.40;1740.80;;;;;;5029667;28;20100;-61
2021/03/01 09:23:50;;;;;;;37.35;23.70;;;205.50;1715.20;;;;;;5011909;28;21162;-63
2021/03/01 09:26:33;;;;;;;34.35;22.15;;;205.70;1689.60;;;;;;5022171;28;20057;-63
2021/03/01 09:29:08;;;;;;;34.10;21.65;;;205.70;1715.20;;;;;;5029721;28;20044;-63
2021/03/01 09:31:38;;;;;;;33.83;21.05;;;230.40;1689.60;;;;;;5029835;28;20057;-63
2021/03/01 09:34:06;;;;;;;34.78;21.00;;;230.40;1715.20;;;;;;5029754;28;20104;-63
2021/03/01 09:36:33;;;;;;;34.63;18.73;;;230.40;1689.60;;;;;;5030105;28;20494;-63
2021/03/01 09:39:00;;;;;;;32.65;19.58;;;230.40;1664.00;;;;;;5012236;28;20479;-64
2021/03/01 09:41:33;;;;;;;29.67;18.08;;;230.40;1664.00;;;;;;5049586;28;20045;-63
2021/03/01 09:43:59;;;;;;;34.53;19.25;;;205.70;1689.60;;;;;;5071993;28;20115;-63
2021/03/01 09:46:27;;;;;;;21.48;15.50;;;205.70;1689.60;;;;;;5071759;28;20115;-63
2021/03/01 09:48:55;;;;;;;26.83;17.42;;;205.60;1689.60;;;;;;5071567;28;20091;-62
2021/03/01 09:51:23;;;;;;;28.35;17.70;;;230.40;1689.60;;;;;;5071507;28;20033;-61
2021/03/01 09:53:49;;;;;;;33.00;18.05;;;230.60;1664.00;;;;;;5073299;28;20055;-63
2021/03/01 09:56:16;;;;;;;29.63;17.17;;;230.80;1638.40;;;;;;5075576;28;20041;-62
2021/03/01 09:58:44;;;;;;;27.08;17.42;;;231.00;1612.80;;;;;;5057675;28;20371;-62
2021/03/01 10:01:12;;;;;;;28.65;17.40;;;230.80;1638.40;;;;;;5075443;28;20070;-62
2021/03/01 10:03:40;;;;;;;26.38;17.42;;;230.80;1638.40;;;;;;5076234;28;20039;-61
2021/03/01 10:06:07;;;;;;;25.50;16.88;;;231.10;1612.80;;;;;;5075766;28;20020;-63
2021/03/01 10:08:33;;;;;;;24.77;15.73;;;231.30;1561.60;;;;;;5074987;28;20078;-61
2021/03/01 10:10:59;;;;;;;26.38;16.05;;;256.10;1561.60;;;;;;5075585;28;20031;-61
2021/03/01 10:13:34;;;;;;;23.15;16.45;;;256.30;1536.00;;;;;;5075362;28;20542;-61
2021/03/01 10:16:07;;;;;;;32.97;16.33;;;256.30;1510.40;;;;;;5075119;28;20544;-61
2021/03/01 10:18:33;;;;;;;19.20;13.23;;;256.00;1536.00;;;;;;5075599;28;20148;-63
2021/03/01 10:21:03;;;;;;;22.08;15.07;;;256.10;1510.40;;;;;;5066343;28;20155;-63
2021/03/01 10:23:33;;;;;;;24.40;15.80;;;256.20;1484.80;;;;;;5074214;28;20025;-61
2021/03/01 10:26:27;;;;;;;23.00;15.18;;;256.20;1510.40;;;;;;5075289;28;20028;-63
2021/03/01 10:28:56;;;;;;;26.20;15.48;;;256.20;1510.40;;;;;;5006019;28;20045;-61
2021/03/01 10:31:24;;;;;;;25.50;15.98;;;256.40;1536.00;;;;;;5006774;28;20038;-62
2021/03/01 10:34:00;;;;;;;;;;;256.40;1484.80;;;;;;5014960;28;20092;-62
2021/03/01 10:36:33;;;;;;;23.40;14.90;;;256.40;1484.80;;;;;;5001429;28;19913;-61
2021/03/01 10:39:19;;;;;;;21.88;14.10;;;256.40;1484.80;;;;;;5012521;28;20033;-61
2021/03/01 10:41:50;;;;;;;23.42;14.57;;;256.40;1459.20;;;;;;5012690;28;20401;-61
2021/03/01 10:44:17;;;;;;;22.73;14.35;;;256.60;1459.20;;;;;;4992543;28;20385;-62
2021/03/01 10:46:46;;;;;;;33.35;15.43;;;256.70;1459.20;;;;;;5012672;28;20034;-61
2021/03/01 10:49:19;;;;;;;31.92;15.80;;;256.80;1408.00;;;;;;4999119;28;20617;-61
2021/03/01 10:51:46;;;;;;;21.67;13.90;;;256.70;1433.60;;;;;;5008852;28;20026;-61
2021/03/01 10:54:12;;;;;;;34.63;15.82;;;256.80;1408.00;;;;;;5012694;28;20411;-62
2021/03/01 10:56:38;;;;;;;22.92;13.20;;;281.80;1408.00;;;;;;5013222;28;20392;-62
2021/03/01 10:59:05;;;;;;;21.17;14.32;;;281.80;1356.80;;;;;;5007486;28;20033;-62
2021/03/01 11:01:39;;;;;;;19.65;12.98;;;281.70;1356.80;;;;;;5012260;28;20042;-62
2021/03/01 11:04:06;;;;;;;19.33;13.50;;;281.90;1331.20;;;;;;5013018;28;20060;-61
2021/03/01 11:06:32;;;;;;;19.65;13.60;;;281.90;1331.20;;;;;;5073926;28;20046;-62
2021/03/01 11:08:59;;;;;;;21.30;13.35;;;282.00;1331.20;;;;;;5074288;28;20482;-61
2021/03/01 11:11:25;;;;;;;25.75;14.52;;;282.00;1331.20;;;;;;5073917;28;20386;-61
2021/03/01 11:13:51;;;;;;;23.85;13.95;;;282.00;1356.80;;;;;;5074450;28;20032;-61
2021/03/01 11:16:17;;;;;;;20.65;13.65;;;281.70;1382.40;;;;;;5066129;28;20025;-61
2021/03/01 11:18:42;;;;;;;21.48;13.80;;;281.80;1382.40;;;;;;5073413;28;20046;-61
2021/03/01 11:21:08;;;;;;;21.70;13.20;;;281.90;1382.40;;;;;;5073703;28;20099;-61
2021/03/01 11:23:34;;;;;;;21.17;13.25;;;282.00;1356.80;;;;;;5065084;28;20775;-61
2021/03/01 11:25:59;;;;;;;21.02;13.43;;;282.30;1356.80;;;;;;5073819;28;20032;-60
2021/03/01 11:28:26;;;;;;;24.42;15.30;;;282.20;1356.80;;;;;;5072939;28;20162;-60
2021/03/01 11:30:51;;;;;;;22.77;14.25;;;282.20;1356.80;;;;;;5073554;28;20032;-61
2021/03/01 11:33:18;;;;;;;20.95;14.38;;;282.40;1356.80;;;;;;5073203;28;20032;-61
2021/03/01 11:35:44;;;;;;;20.02;12.88;;;282.50;1356.80;;;;;;5073253;28;20139;-61
2021/03/01 11:38:09;;;;;;;22.33;15.77;;;307.30;1331.20;;;;;;5071131;28;20104;-62
2021/03/01 11:40:35;;;;;;;21.50;13.35;;;307.30;1331.20;;;;;;5068842;28;20134;-61
2021/03/01 11:43:01;;;;;;;20.67;13.10;;;307.20;1356.80;;;;;;5073544;28;20052;-61
2021/03/01 11:45:27;;;;;;;23.20;13.43;;;282.50;1331.20;;;;;;5073540;28;20021;-63
2021/03/01 11:47:52;;;;;;;19.95;12.80;;;307.20;1331.20;;;;;;5073800;28;20377;-62
2021/03/01 11:50:19;;;;;;;19.67;11.73;;;282.50;1331.20;;;;;;5073691;28;20083;-61
2021/03/01 11:52:45;;;;;;;18.08;12.27;;;307.40;1305.60;;;;;;5066538;28;20061;-61
2021/03/01 11:55:12;;;;;;;20.17;13.65;;;307.20;1331.20;;;;;;5071140;28;20024;-61
2021/03/01 11:57:38;;;;;;;18.48;11.60;;;307.50;1331.20;;;;;;5073429;28;20016;-61
2021/03/01 12:00:07;;;;;;;19.55;11.52;;;307.40;1305.60;;;;;;5073847;28;20031;-62
2021/03/01 12:02:32;;;;;;;18.38;12.13;;;307.20;1305.60;;;;;;5072422;28;20013;-62
2021/03/01 12:04:59;;;;;;;15.18;11.50;;;307.20;1305.60;;;;;;5073167;28;20410;-61
2021/03/01 12:07:25;;;;;;;18.00;11.50;;;307.20;1280.00;;;;;;5073512;28;20020;-61
2021/03/01 12:09:50;;;;;;;16.92;11.23;;;307.50;1280.00;;;;;;5072800;28;20036;-61